My Meet Scores
Catherine Zafir, Aerial Gymnastics Club - MyMeetScores.com
Top100 | Top Teams | Upcoming Meets | Completed Meets | Latest | Add Scores | Help| Support | Bookmark and Share

Catherine Zafir, Aerial Gymnastics Club
Personal Bests
LevelVault BarsBeamFloorAA
39.1509.075 9.2509.10036.025
48.7508.950 9.0009.25035.650
58.6008.400 8.9508.50034.450
Meet Scores
Date Meet Team Session Level Division Vault Bars Beam Floor AA
2019-12-06 Ultimate Wish Classic Aerial Gymnastics Club 6B 5 SR A 8.600 12T 8.400 7 8.950 2 8.500 13 34.450 6
2019-02-15 Women's Midwest Open Aerial Gymnastics Club 09 4 Senior B 0.000 21 8.650 14 0.000 21 0.000 21 8.650 21
2019-01-19 2019 Hang 10.0 Invitational Aerial Gymnastics Club 1 4 10-11 Yr O 8.300 6 8.950 4 9.000 5T 9.250 2 35.500 1
2019-01-11 St Jude Benefit Meet Aerial Gymnastics Club 7A 4 Sr B 8.750 10T 8.800 8 8.950 8 9.150 5 35.650 5
2018-12-14 Hawaiian Pineapple Classic Aerial Gymnastics Club 6A 4 Age11 7.950 10 8.725 9T 8.450 15 8.750 11T 33.875 10
2018-11-30 Ultimate Wish Classic Aerial Gymnastics Club 11 4 SR A 8.000 22 8.600 15T 8.450 16 8.850 10T 33.900 17
2018-02-23 Kinetic Classic Infinity Gymnastics Academy 7 4 Middle 7.800 76T 8.275 65T 8.425 77T 8.550 70T 33.050 76
2018-02-17 Women's Midwest Open Infinity Gymnastics Academy 08 4 JR A 8.150 15 8.150 13 8.100 15 8.550 14T 32.950 15
2018-02-02 Chris Waller's Heart Of A Champion Invitational Infinity Gymnastics Academy 12H 4 Jr B 7.850 13 7.500 13 8.550 6 8.075 13 31.975 13
2018-01-18 Circle Of Stars Gymnastics Invitational Infinity Gymnastics Academy C3 4 Jr B 8.475 15 7.500 18 8.750 11 8.250 17 32.975 17
2018-01-12 St Jude Benefit Meet Infinity Gymnastics Academy 3A 4 JrC 7.450 18 8.150 14 8.650 12 8.350 16 32.600 17
2017-12-14 2017 Women's Hawaiian Pineapple Classic Infinity Gymnastics Academy 1A 4 Age10 7.600 23 7.525 25 8.525 17 8.425 21T 32.075 21
2017-11-10 Illinois NAWGJ Judges Cup 2017 Infinity Gymnastics Academy G3 4 All Ages 7.300 70 7.950 53T 8.375 47T 8.200 47T 31.825 56
2017-03-30 2017 Illinois Level 3 & 5 State Infinity Gymnastics Academy All 3 Jr B 9.150 21T 8.950 24 9.125 9T 8.375 28 35.600 22
2017-03-10 Lucky Invitational Infinity Gymnastics Academy B02 3 Sr A 8.850 10 9.075 7 8.075 10 8.850 10 34.850 10
2017-02-24 Houston National Invitational - Ocean View Infinity Gymnastics Academy O03 3 Jr C 9.000 10 9.000 8 8.925 3 9.100 6T 36.025 4
2017-02-10 IGI Chicago Style Gymnastics Meet Infinity Gymnastics Academy 232L 3 JrC 8.750 20 9.025 11 9.250 7 8.200 17 35.225 15
2017-01-28 Wisconsin Dells Gymnastics Vacation Classic - USAG Infinity Gymnastics Academy B6 3 Junior B 8.550 19 9.000 8 9.050 4T 8.275 16 34.875 9
2017-01-13 St Jude Benefit Meet Infinity Gymnastics Academy 9A 3 Jr C 8.825 16 9.075 11 8.800 6 8.950 11T 35.650 10
2016-12-15 2016 Hawaiian Pineapple Sanction Infinity Gymnastics Academy 5B 3 Age 9 8.750 23 8.800 10T 9.050 4 8.500 18 35.100 13
2016-11-11 2016 Illinois Judges Cup Infinity Gymnastics Academy B6 3 9-10 Year 8.950 15 8.700 8T 9.150 1 8.250 13 35.050 5
Get your scores on
a t-shirt, pin, or hoodie

Order by December 13

www.lazysuits.com